sensor_id;sensor_type;location;lat;lon;timestamp;pressure;altitude;pressure_sealevel;temperature;humidity
57616;BME280;43816;52.054;-9.494;2024-01-30T00:00:02;102280.00;;;15.34;40.05
57616;BME280;43816;52.054;-9.494;2024-01-30T00:00:13;102281.69;;;15.35;39.92
57616;BME280;43816;52.054;-9.494;2024-01-30T00:00:25;102259.06;;;15.23;40.33
57616;BME280;43816;52.054;-9.494;2024-01-30T00:00:35;102272.06;;;15.31;40.19
57616;BME280;43816;52.054;-9.494;2024-01-30T00:00:45;102275.41;;;15.34;40.03
57616;BME280;43816;52.054;-9.494;2024-01-30T00:00:57;102248.78;;;15.15;40.38
57616;BME280;43816;52.054;-9.494;2024-01-30T00:01:07;102280.00;;;15.34;40.03
57616;BME280;43816;52.054;-9.494;2024-01-30T00:01:17;102265.34;;;15.24;40.16
57616;BME280;43816;52.054;-9.494;2024-01-30T00:01:27;102277.72;;;15.28;40.08
57616;BME280;43816;52.054;-9.494;2024-01-30T00:01:38;102285.19;;;15.37;40.00
57616;BME280;43816;52.054;-9.494;2024-01-30T00:01:48;102248.22;;;15.10;39.96
57616;BME280;43816;52.054;-9.494;2024-01-30T00:01:58;102274.78;;;15.31;40.18
57616;BME280;43816;52.054;-9.494;2024-01-30T00:02:09;102263.53;;;15.24;40.47
57616;BME280;43816;52.054;-9.494;2024-01-30T00:02:19;102290.63;;;15.37;40.03
57616;BME280;43816;52.054;-9.494;2024-01-30T00:02:30;102291.59;;;15.36;40.03
57616;BME280;43816;52.054;-9.494;2024-01-30T00:02:40;102274.03;;;15.29;40.18
57616;BME280;43816;52.054;-9.494;2024-01-30T00:02:50;102275.31;;;15.23;39.88
57616;BME280;43816;52.054;-9.494;2024-01-30T00:03:01;102257.78;;;15.16;40.07
57616;BME280;43816;52.054;-9.494;2024-01-30T00:03:11;102263.84;;;15.20;40.17
57616;BME280;43816;52.054;-9.494;2024-01-30T00:03:21;102285.41;;;15.34;40.40
57616;BME280;43816;52.054;-9.494;2024-01-30T00:03:32;102299.72;;;15.36;40.05
57616;BME280;43816;52.054;-9.494;2024-01-30T00:03:42;102285.31;;;15.35;40.33
57616;BME280;43816;52.054;-9.494;2024-01-30T00:03:52;102288.00;;;15.35;40.38
57616;BME280;43816;52.054;-9.494;2024-01-30T00:04:03;102275.84;;;15.28;40.28
57616;BME280;43816;52.054;-9.494;2024-01-30T00:04:13;102284.41;;;15.35;39.96
57616;BME280;43816;52.054;-9.494;2024-01-30T00:04:23;102281.91;;;15.32;39.98
57616;BME280;43816;52.054;-9.494;2024-01-30T00:04:34;102279.22;;;15.32;40.07
57616;BME280;43816;52.054;-9.494;2024-01-30T00:04:44;102280.22;;;15.31;40.38
57616;BME280;43816;52.054;-9.494;2024-01-30T00:04:54;102278.56;;;15.28;40.26
57616;BME280;43816;52.054;-9.494;2024-01-30T00:05:05;102289.72;;;15.36;40.26
57616;BME280;43816;52.054;-9.494;2024-01-30T00:05:15;102262.09;;;15.18;40.11
57616;BME280;43816;52.054;-9.494;2024-01-30T00:05:25;102262.00;;;15.20;40.07
57616;BME280;43816;52.054;-9.494;2024-01-30T00:05:36;102291.69;;;15.34;39.91
57616;BME280;43816;52.054;-9.494;2024-01-30T00:05:46;102285.53;;;15.32;40.31
57616;BME280;43816;52.054;-9.494;2024-01-30T00:05:56;102288.97;;;15.34;40.08
57616;BME280;43816;52.054;-9.494;2024-01-30T00:06:07;102284.75;;;15.30;40.28
57616;BME280;43816;52.054;-9.494;2024-01-30T00:06:19;102282.16;;;15.29;40.16
57616;BME280;43816;52.054;-9.494;2024-01-30T00:06:29;102292.53;;;15.35;39.98
57616;BME280;43816;52.054;-9.494;2024-01-30T00:06:40;102291.69;;;15.34;40.03
57616;BME280;43816;52.054;-9.494;2024-01-30T00:06:50;102285.84;;;15.28;40.18
57616;BME280;43816;52.054;-9.494;2024-01-30T00:07:01;102258.09;;;15.11;39.96
57616;BME280;43816;52.054;-9.494;2024-01-30T00:07:11;102287.34;;;15.32;40.25
57616;BME280;43816;52.054;-9.494;2024-01-30T00:07:21;102246.53;;;15.09;40.22
57616;BME280;43816;52.054;-9.494;2024-01-30T00:07:32;102290.84;;;15.34;40.16
57616;BME280;43816;52.054;-9.494;2024-01-30T00:07:42;102289.31;;;15.30;40.19
57616;BME280;43816;52.054;-9.494;2024-01-30T00:07:52;102269.16;;;15.21;40.18
57616;BME280;43816;52.054;-9.494;2024-01-30T00:08:03;102271.53;;;15.26;40.23
57616;BME280;43816;52.054;-9.494;2024-01-30T00:08:13;102283.66;;;15.33;40.12
57616;BME280;43816;52.054;-9.494;2024-01-30T00:08:24;102282.69;;;15.34;40.31
57616;BME280;43816;52.054;-9.494;2024-01-30T00:08:34;102279.47;;;15.29;40.29
57616;BME280;43816;52.054;-9.494;2024-01-30T00:08:44;102287.22;;;15.33;40.05
57616;BME280;43816;52.054;-9.494;2024-01-30T00:08:55;102289.94;;;15.33;40.38
57616;BME280;43816;52.054;-9.494;2024-01-30T00:09:05;102246.53;;;15.09;40.14
57616;BME280;43816;52.054;-9.494;2024-01-30T00:09:15;102292.66;;;15.33;40.17
57616;BME280;43816;52.054;-9.494;2024-01-30T00:09:26;102288.13;;;15.34;40.00
57616;BME280;43816;52.054;-9.494;2024-01-30T00:09:38;102281.16;;;15.30;39.97
57616;BME280;43816;52.054;-9.494;2024-01-30T00:09:48;102281.16;;;15.30;40.29
57616;BME280;43816;52.054;-9.494;2024-01-30T00:09:58;102269.91;;;15.23;40.42
57616;BME280;43816;52.054;-9.494;2024-01-30T00:10:09;102277.59;;;15.29;40.07
57616;BME280;43816;52.054;-9.494;2024-01-30T00:10:19;102285.53;;;15.32;40.15
57616;BME280;43816;52.054;-9.494;2024-01-30T00:10:29;102289.09;;;15.33;40.38
57616;BME280;43816;52.054;-9.494;2024-01-30T00:10:40;102272.28;;;15.28;40.28
57616;BME280;43816;52.054;-9.494;2024-01-30T00:10:50;102263.09;;;15.17;40.43
57616;BME280;43816;52.054;-9.494;2024-01-30T00:11:00;102290.94;;;15.32;40.23
57616;BME280;43816;52.054;-9.494;2024-01-30T00:11:10;102284.63;;;15.32;40.17
57616;BME280;43816;52.054;-9.494;2024-01-30T00:11:21;102284.63;;;15.32;40.17
57616;BME280;43816;52.054;-9.494;2024-01-30T00:11:31;102269.78;;;15.25;40.32
57616;BME280;43816;52.054;-9.494;2024-01-30T00:11:41;102277.94;;;15.25;40.25
57616;BME280;43816;52.054;-9.494;2024-01-30T00:11:52;102285.09;;;15.26;40.04
57616;BME280;43816;52.054;-9.494;2024-01-30T00:12:02;102291.91;;;15.31;40.02
57616;BME280;43816;52.054;-9.494;2024-01-30T00:12:12;102280.41;;;15.28;40.13
57616;BME280;43816;52.054;-9.494;2024-01-30T00:12:24;102275.09;;;15.26;40.18
57616;BME280;43816;52.054;-9.494;2024-01-30T00:12:34;102282.16;;;15.29;40.35
57616;BME280;43816;52.054;-9.494;2024-01-30T00:12:45;102286.38;;;15.33;40.18
57616;BME280;43816;52.054;-9.494;2024-01-30T00:12:55;102252.69;;;15.11;40.21
57616;BME280;43816;52.054;-9.494;2024-01-30T00:13:05;102266.34;;;15.23;40.03
57616;BME280;43816;52.054;-9.494;2024-01-30T00:13:16;102279.47;;;15.29;40.15
57616;BME280;43816;52.054;-9.494;2024-01-30T00:13:26;102262.22;;;15.17;40.40
57616;BME280;43816;52.054;-9.494;2024-01-30T00:13:36;102275.22;;;15.25;40.49
57616;BME280;43816;52.054;-9.494;2024-01-30T00:13:46;102277.06;;;15.24;39.88
57616;BME280;43816;52.054;-9.494;2024-01-30T00:13:57;102286.47;;;15.31;39.98
57616;BME280;43816;52.054;-9.494;2024-01-30T00:14:07;102287.34;;;15.32;39.89
57616;BME280;43816;52.054;-9.494;2024-01-30T00:14:17;102278.78;;;15.25;39.92
57616;BME280;43816;52.054;-9.494;2024-01-30T00:14:28;102277.19;;;15.23;40.37
57616;BME280;43816;52.054;-9.494;2024-01-30T00:14:38;102285.63;;;15.31;40.24
57616;BME280;43816;52.054;-9.494;2024-01-30T00:14:48;102278.03;;;15.23;40.22
57616;BME280;43816;52.054;-9.494;2024-01-30T00:14:59;102290.06;;;15.32;40.19
57616;BME280;43816;52.054;-9.494;2024-01-30T00:15:09;102266.66;;;15.18;40.34
57616;BME280;43816;52.054;-9.494;2024-01-30T00:15:20;102247.47;;;15.08;40.18
57616;BME280;43816;52.054;-9.494;2024-01-30T00:15:30;102289.31;;;15.30;39.98
57616;BME280;43816;52.054;-9.494;2024-01-30T00:15:40;102261.56;;;15.13;40.11
57616;BME280;43816;52.054;-9.494;2024-01-30T00:15:51;102284.75;;;15.30;40.17
57616;BME280;43816;52.054;-9.494;2024-01-30T00:16:01;102293.75;;;15.31;40.43
57616;BME280;43816;52.054;-9.494;2024-01-30T00:16:21;102295.59;;;15.30;40.34
57616;BME280;43816;52.054;-9.494;2024-01-30T00:16:32;102289.53;;;15.27;39.91
57616;BME280;43816;52.054;-9.494;2024-01-30T00:16:42;102289.53;;;15.27;40.39
57616;BME280;43816;52.054;-9.494;2024-01-30T00:16:52;102276.44;;;15.21;40.46
57616;BME280;43816;52.054;-9.494;2024-01-30T00:17:02;102290.16;;;15.30;40.33
57616;BME280;43816;52.054;-9.494;2024-01-30T00:17:13;102267.88;;;15.14;40.08
57616;BME280;43816;52.054;-9.494;2024-01-30T00:17:23;102292.88;;;15.30;40.33
57616;BME280;43816;52.054;-9.494;2024-01-30T00:17:33;102275.91;;;15.15;39.94
57616;BME280;43816;52.054;-9.494;2024-01-30T00:17:44;102279.16;;;15.21;40.22
57616;BME280;43816;52.054;-9.494;2024-01-30T00:17:54;102275.44;;;15.22;40.40
57616;BME280;43816;52.054;-9.494;2024-01-30T00:18:04;102295.59;;;15.30;40.39
57616;BME280;43816;52.054;-9.494;2024-01-30T00:18:14;102262.78;;;15.09;40.28
57616;BME280;43816;52.054;-9.494;2024-01-30T00:18:25;102292.22;;;15.27;40.02
57616;BME280;43816;52.054;-9.494;2024-01-30T00:18:35;102288.66;;;15.26;40.32
57616;BME280;43816;52.054;-9.494;2024-01-30T00:18:46;102285.31;;;15.23;40.30
57616;BME280;43816;52.054;-9.494;2024-01-30T00:18:56;102292.34;;;15.25;40.15
57616;BME280;43816;52.054;-9.494;2024-01-30T00:19:07;102299.28;;;15.29;40.03
57616;BME280;43816;52.054;-9.494;2024-01-30T00:19:17;102278.63;;;15.15;40.28
57616;BME280;43816;52.054;-9.494;2024-01-30T00:19:27;102289.53;;;15.27;40.36
57616;BME280;43816;52.054;-9.494;2024-01-30T00:19:38;102288.88;;;15.23;40.46
57616;BME280;43816;52.054;-9.494;2024-01-30T00:19:48;102288.25;;;15.20;39.97
57616;BME280;43816;52.054;-9.494;2024-01-30T00:19:58;102292.44;;;15.24;40.25
57616;BME280;43816;52.054;-9.494;2024-01-30T00:20:09;102275.13;;;15.13;40.11
57616;BME280;43816;52.054;-9.494;2024-01-30T00:20:20;102300.25;;;15.28;40.31
57616;BME280;43816;52.054;-9.494;2024-01-30T00:20:30;102300.25;;;15.28;40.18
57616;BME280;43816;52.054;-9.494;2024-01-30T00:20:41;102285.44;;;15.21;39.97
57616;BME280;43816;52.054;-9.494;2024-01-30T00:20:51;102285.44;;;15.21;40.24
57616;BME280;43816;52.054;-9.494;2024-01-30T00:21:01;102296.06;;;15.24;40.01
57616;BME280;43816;52.054;-9.494;2024-01-30T00:21:12;102294.84;;;15.28;40.29
57616;BME280;43816;52.054;-9.494;2024-01-30T00:21:23;102299.41;;;15.28;40.36
57616;BME280;43816;52.054;-9.494;2024-01-30T00:21:34;102299.41;;;15.28;40.37
57616;BME280;43816;52.054;-9.494;2024-01-30T00:21:44;102276.13;;;15.12;40.67
57616;BME280;43816;52.054;-9.494;2024-01-30T00:21:54;102287.16;;;15.22;40.05
57616;BME280;43816;52.054;-9.494;2024-01-30T00:22:04;102287.28;;;15.21;40.13
57616;BME280;43816;52.054;-9.494;2024-01-30T00:22:15;102290.09;;;15.19;40.19
57616;BME280;43816;52.054;-9.494;2024-01-30T00:22:25;102287.38;;;15.19;39.82
57616;BME280;43816;52.054;-9.494;2024-01-30T00:22:35;102292.44;;;15.24;39.95
57616;BME280;43816;52.054;-9.494;2024-01-30T00:22:46;102290.22;;;15.17;39.93
57616;BME280;43816;52.054;-9.494;2024-01-30T00:22:56;102303.09;;;15.27;40.39
57616;BME280;43816;52.054;-9.494;2024-01-30T00:23:06;102300.38;;;15.27;40.20
57616;BME280;43816;52.054;-9.494;2024-01-30T00:23:17;102300.38;;;15.27;39.74
57616;BME280;43816;52.054;-9.494;2024-01-30T00:23:27;102305.78;;;15.27;40.02
57616;BME280;43816;52.054;-9.494;2024-01-30T00:23:37;102297.88;;;15.24;40.11
57616;BME280;43816;52.054;-9.494;2024-01-30T00:23:48;102295.16;;;15.24;40.02
57616;BME280;43816;52.054;-9.494;2024-01-30T00:23:58;102299.09;;;15.20;40.04
57616;BME280;43816;52.054;-9.494;2024-01-30T00:24:08;102305.78;;;15.27;40.29
57616;BME280;43816;52.054;-9.494;2024-01-30T00:24:18;102281.66;;;15.11;40.15
57616;BME280;43816;52.054;-9.494;2024-01-30T00:24:29;102299.94;;;15.20;40.03
57616;BME280;43816;52.054;-9.494;2024-01-30T00:24:39;102308.50;;;15.27;40.11
57616;BME280;43816;52.054;-9.494;2024-01-30T00:24:52;102299.09;;;15.20;40.22
57616;BME280;43816;52.054;-9.494;2024-01-30T00:25:08;102302.56;;;15.22;40.22
57616;BME280;43816;52.054;-9.494;2024-01-30T00:25:18;102281.66;;;15.11;39.99
57616;BME280;43816;52.054;-9.494;2024-01-30T00:25:29;102283.81;;;15.06;40.16
57616;BME280;43816;52.054;-9.494;2024-01-30T00:25:39;102310.34;;;15.26;40.47
57616;BME280;43816;52.054;-9.494;2024-01-30T00:25:53;102305.25;;;15.22;40.07
57616;BME280;43816;52.054;-9.494;2024-01-30T00:26:06;102278.28;;;15.07;40.29
57616;BME280;43816;52.054;-9.494;2024-01-30T00:26:18;102280.91;;;15.09;39.98
57616;BME280;43816;52.054;-9.494;2024-01-30T00:26:28;102291.59;;;15.10;39.96
57616;BME280;43816;52.054;-9.494;2024-01-30T00:26:48;102240.47;;;14.80;40.28
57616;BME280;43816;52.054;-9.494;2024-01-30T00:27:07;102287.81;;;15.13;40.29
57616;BME280;43816;52.054;-9.494;2024-01-30T00:27:17;102308.63;;;15.25;39.80
57616;BME280;43816;52.054;-9.494;2024-01-30T00:27:28;102293.13;;;15.14;40.06
57616;BME280;43816;52.054;-9.494;2024-01-30T00:27:41;102245.78;;;14.82;40.16
57616;BME280;43816;52.054;-9.494;2024-01-30T00:27:54;102242.31;;;14.79;39.94
57616;BME280;43816;52.054;-9.494;2024-01-30T00:28:07;102215.34;;;14.65;39.95
57616;BME280;43816;52.054;-9.494;2024-01-30T00:28:17;102234.41;;;14.76;39.93
57616;BME280;43816;52.054;-9.494;2024-01-30T00:28:27;102211.66;;;14.66;40.16
57616;BME280;43816;52.054;-9.494;2024-01-30T00:28:38;102272.56;;;14.99;40.12
57616;BME280;43816;52.054;-9.494;2024-01-30T00:28:48;102215.44;;;14.64;40.23
57616;BME280;43816;52.054;-9.494;2024-01-30T00:28:59;102218.47;;;14.72;40.03
57616;BME280;43816;52.054;-9.494;2024-01-30T00:29:09;102248.16;;;14.86;40.15
57616;BME280;43816;52.054;-9.494;2024-01-30T00:29:19;102304.41;;;15.21;39.96
57616;BME280;43816;52.054;-9.494;2024-01-30T00:29:30;102294.09;;;15.13;39.93
57616;BME280;43816;52.054;-9.494;2024-01-30T00:29:40;102315.88;;;15.25;40.31
57616;BME280;43816;52.054;-9.494;2024-01-30T00:29:50;102281.97;;;15.06;39.92
57616;BME280;43816;52.054;-9.494;2024-01-30T00:30:01;102306.00;;;15.24;39.90
57616;BME280;43816;52.054;-9.494;2024-01-30T00:30:11;102312.31;;;15.24;40.26
57616;BME280;43816;52.054;-9.494;2024-01-30T00:30:23;102313.41;;;15.22;40.51
57616;BME280;43816;52.054;-9.494;2024-01-30T00:30:35;102295.09;;;15.12;39.95
57616;BME280;43816;52.054;-9.494;2024-01-30T00:30:45;102296.81;;;15.13;40.24
57616;BME280;43816;52.054;-9.494;2024-01-30T00:30:55;102302.88;;;15.17;40.00
57616;BME280;43816;52.054;-9.494;2024-01-30T00:31:05;102302.13;;;15.15;40.04
57616;BME280;43816;52.054;-9.494;2024-01-30T00:31:16;102304.50;;;15.20;40.08
57616;BME280;43816;52.054;-9.494;2024-01-30T00:31:26;102311.44;;;15.24;40.07
57616;BME280;43816;52.054;-9.494;2024-01-30T00:31:36;102314.16;;;15.24;40.34
57616;BME280;43816;52.054;-9.494;2024-01-30T00:31:48;102285.53;;;15.07;39.74
57616;BME280;43816;52.054;-9.494;2024-01-30T00:31:58;102300.31;;;15.15;40.13
57616;BME280;43816;52.054;-9.494;2024-01-30T00:32:09;102290.75;;;15.10;39.91
57616;BME280;43816;52.054;-9.494;2024-01-30T00:32:19;102309.72;;;15.23;39.82
57616;BME280;43816;52.054;-9.494;2024-01-30T00:32:29;102285.44;;;15.08;39.86
57616;BME280;43816;52.054;-9.494;2024-01-30T00:32:39;102287.94;;;15.11;39.72
57616;BME280;43816;52.054;-9.494;2024-01-30T00:32:50;102305.25;;;15.22;39.92
57616;BME280;43816;52.054;-9.494;2024-01-30T00:33:00;102280.47;;;15.02;40.12
57616;BME280;43816;52.054;-9.494;2024-01-30T00:33:10;102306.25;;;15.21;39.89
57616;BME280;43816;52.054;-9.494;2024-01-30T00:33:21;102310.69;;;15.22;39.94
57616;BME280;43816;52.054;-9.494;2024-01-30T00:33:31;102313.41;;;15.22;40.07
57616;BME280;43816;52.054;-9.494;2024-01-30T00:33:42;102292.59;;;15.09;39.96
57616;BME280;43816;52.054;-9.494;2024-01-30T00:33:52;102304.72;;;15.16;39.96
57616;BME280;43816;52.054;-9.494;2024-01-30T00:34:02;102308.97;;;15.21;40.09
57616;BME280;43816;52.054;-9.494;2024-01-30T00:34:13;102296.06;;;15.11;40.10
57616;BME280;43816;52.054;-9.494;2024-01-30T00:34:23;102311.69;;;15.21;40.15
57616;BME280;43816;52.054;-9.494;2024-01-30T00:34:33;102285.75;;;15.04;39.88
57616;BME280;43816;52.054;-9.494;2024-01-30T00:34:43;102310.78;;;15.20;40.22
57616;BME280;43816;52.054;-9.494;2024-01-30T00:34:54;102303.88;;;15.16;40.39
57616;BME280;43816;52.054;-9.494;2024-01-30T00:35:04;102310.69;;;15.22;39.92
57616;BME280;43816;52.054;-9.494;2024-01-30T00:35:15;102307.44;;;15.16;40.27
57616;BME280;43816;52.054;-9.494;2024-01-30T00:35:25;102303.88;;;15.16;40.05
57616;BME280;43816;52.054;-9.494;2024-01-30T00:35:35;102311.00;;;15.17;39.92
57616;BME280;43816;52.054;-9.494;2024-01-30T00:35:46;102306.59;;;15.16;40.16
57616;BME280;43816;52.054;-9.494;2024-01-30T00:35:56;102311.91;;;15.17;39.98
57616;BME280;43816;52.054;-9.494;2024-01-30T00:36:08;102310.78;;;15.20;39.71
57616;BME280;43816;52.054;-9.494;2024-01-30T00:36:18;102294.22;;;15.12;39.98
57616;BME280;43816;52.054;-9.494;2024-01-30T00:36:28;102304.84;;;15.15;40.12
57616;BME280;43816;52.054;-9.494;2024-01-30T00:36:39;102301.28;;;15.14;40.06
57616;BME280;43816;52.054;-9.494;2024-01-30T00:36:49;102296.91;;;15.12;39.80
57616;BME280;43816;52.054;-9.494;2024-01-30T00:36:59;102309.94;;;15.20;40.22
57616;BME280;43816;52.054;-9.494;2024-01-30T00:37:09;102311.78;;;15.19;40.37
57616;BME280;43816;52.054;-9.494;2024-01-30T00:37:20;102289.16;;;15.07;39.71
57616;BME280;43816;52.054;-9.494;2024-01-30T00:37:30;102285.75;;;15.04;40.07
57616;BME280;43816;52.054;-9.494;2024-01-30T00:37:40;102280.47;;;15.02;39.90
57616;BME280;43816;52.054;-9.494;2024-01-30T00:37:51;102307.34;;;15.18;39.88
57616;BME280;43816;52.054;-9.494;2024-01-30T00:38:01;102319.03;;;15.18;39.82
57616;BME280;43816;52.054;-9.494;2024-01-30T00:38:11;102307.34;;;15.18;40.08
57616;BME280;43816;52.054;-9.494;2024-01-30T00:38:22;102310.91;;;15.18;39.80
57616;BME280;43816;52.054;-9.494;2024-01-30T00:38:32;102313.63;;;15.18;39.82
57616;BME280;43816;52.054;-9.494;2024-01-30T00:38:43;102304.19;;;15.11;40.06
57616;BME280;43816;52.054;-9.494;2024-01-30T00:38:53;102306.91;;;15.11;39.78
57616;BME280;43816;52.054;-9.494;2024-01-30T00:39:03;102304.09;;;15.13;40.25
57616;BME280;43816;52.054;-9.494;2024-01-30T00:39:14;102310.91;;;15.18;40.24
57616;BME280;43816;52.054;-9.494;2024-01-30T00:39:24;102313.63;;;15.18;39.81
57616;BME280;43816;52.054;-9.494;2024-01-30T00:39:34;102300.53;;;15.12;40.24
57616;BME280;43816;52.054;-9.494;2024-01-30T00:39:44;102307.66;;;15.13;39.88
57616;BME280;43816;52.054;-9.494;2024-01-30T00:39:58;102311.91;;;15.17;39.81
57616;BME280;43816;52.054;-9.494;2024-01-30T00:40:08;102309.41;;;15.14;39.91
57616;BME280;43816;52.054;-9.494;2024-01-30T00:40:19;102305.84;;;15.14;39.92
57616;BME280;43816;52.054;-9.494;2024-01-30T00:40:29;102309.19;;;15.17;39.85
57616;BME280;43816;52.054;-9.494;2024-01-30T00:40:39;102312.75;;;15.18;39.99
57616;BME280;43816;52.054;-9.494;2024-01-30T00:40:50;102288.25;;;15.07;40.00
57616;BME280;43816;52.054;-9.494;2024-01-30T00:41:00;102308.28;;;15.17;39.99
57616;BME280;43816;52.054;-9.494;2024-01-30T00:41:10;102314.59;;;15.17;40.03
57616;BME280;43816;52.054;-9.494;2024-01-30T00:41:20;102300.94;;;15.06;40.09
57616;BME280;43816;52.054;-9.494;2024-01-30T00:41:31;102272.03;;;14.94;40.20
57616;BME280;43816;52.054;-9.494;2024-01-30T00:41:41;102292.81;;;15.06;40.14
57616;BME280;43816;52.054;-9.494;2024-01-30T00:41:52;102307.34;;;15.18;39.57
57616;BME280;43816;52.054;-9.494;2024-01-30T00:42:02;102311.00;;;15.17;40.10
57616;BME280;43816;52.054;-9.494;2024-01-30T00:42:12;102304.09;;;15.13;39.78
57616;BME280;43816;52.054;-9.494;2024-01-30T00:42:23;102312.00;;;15.16;40.16
57616;BME280;43816;52.054;-9.494;2024-01-30T00:42:33;102302.59;;;15.09;40.01
57616;BME280;43816;52.054;-9.494;2024-01-30T00:42:44;102287.81;;;15.00;39.94
57616;BME280;43816;52.054;-9.494;2024-01-30T00:42:54;102309.50;;;15.13;39.93
57616;BME280;43816;52.054;-9.494;2024-01-30T00:43:04;102290.22;;;15.05;39.82
57616;BME280;43816;52.054;-9.494;2024-01-30T00:43:15;102305.94;;;15.12;39.91
57616;BME280;43816;52.054;-9.494;2024-01-30T00:43:26;102310.16;;;15.16;39.80
57616;BME280;43816;52.054;-9.494;2024-01-30T00:43:36;102308.44;;;15.15;39.84
57616;BME280;43816;52.054;-9.494;2024-01-30T00:43:47;102300.84;;;15.08;40.05
57616;BME280;43816;52.054;-9.494;2024-01-30T00:43:57;102309.63;;;15.11;40.14
57616;BME280;43816;52.054;-9.494;2024-01-30T00:44:07;102304.53;;;15.07;39.86
57616;BME280;43816;52.054;-9.494;2024-01-30T00:44:18;102320.25;;;15.14;40.02
57616;BME280;43816;52.054;-9.494;2024-01-30T00:44:28;102298.44;;;15.03;40.23
57616;BME280;43816;52.054;-9.494;2024-01-30T00:44:40;102308.75;;;15.11;40.23
57616;BME280;43816;52.054;-9.494;2024-01-30T00:44:50;102298.34;;;15.05;39.85
57616;BME280;43816;52.054;-9.494;2024-01-30T00:45:00;102311.25;;;15.14;39.90
57616;BME280;43816;52.054;-9.494;2024-01-30T00:45:14;102310.59;;;15.10;40.14
57616;BME280;43816;52.054;-9.494;2024-01-30T00:45:25;102307.88;;;15.10;40.14
57616;BME280;43816;52.054;-9.494;2024-01-30T00:45:35;102315.69;;;15.15;39.86
57616;BME280;43816;52.054;-9.494;2024-01-30T00:45:45;102312.13;;;15.14;39.88
57616;BME280;43816;52.054;-9.494;2024-01-30T00:45:56;102312.13;;;15.14;39.92
57616;BME280;43816;52.054;-9.494;2024-01-30T00:46:06;102289.56;;;15.01;40.02
57616;BME280;43816;52.054;-9.494;2024-01-30T00:46:16;102307.00;;;15.10;40.04
57616;BME280;43816;52.054;-9.494;2024-01-30T00:46:26;102316.69;;;15.14;39.87
57616;BME280;43816;52.054;-9.494;2024-01-30T00:46:37;102309.41;;;15.14;40.08
57616;BME280;43816;52.054;-9.494;2024-01-30T00:46:47;102291.06;;;15.05;40.13
57616;BME280;43816;52.054;-9.494;2024-01-30T00:46:57;102313.19;;;15.12;39.90
57616;BME280;43816;52.054;-9.494;2024-01-30T00:47:07;102306.91;;;15.11;40.01
57616;BME280;43816;52.054;-9.494;2024-01-30T00:47:18;102307.00;;;15.10;39.92
57616;BME280;43816;52.054;-9.494;2024-01-30T00:47:29;102317.53;;;15.14;39.81
57616;BME280;43816;52.054;-9.494;2024-01-30T00:47:39;102315.78;;;15.13;39.93
57616;BME280;43816;52.054;-9.494;2024-01-30T00:47:51;102280.25;;;14.92;39.82
57616;BME280;43816;52.054;-9.494;2024-01-30T00:48:01;102311.38;;;15.12;40.12
57616;BME280;43816;52.054;-9.494;2024-01-30T00:48:12;102309.50;;;15.13;40.12
57616;BME280;43816;52.054;-9.494;2024-01-30T00:48:22;102308.66;;;15.12;39.85
57616;BME280;43816;52.054;-9.494;2024-01-30T00:48:32;102301.91;;;15.05;39.99
57616;BME280;43816;52.054;-9.494;2024-01-30T00:48:43;102300.94;;;15.06;40.15
57616;BME280;43816;52.054;-9.494;2024-01-30T00:48:53;102313.06;;;15.13;40.04
57616;BME280;43816;52.054;-9.494;2024-01-30T00:49:03;102284.69;;;14.93;40.10
57616;BME280;43816;52.054;-9.494;2024-01-30T00:49:13;102311.38;;;15.12;39.91
57616;BME280;43816;52.054;-9.494;2024-01-30T00:49:24;102304.41;;;15.08;40.31
57616;BME280;43816;52.054;-9.494;2024-01-30T00:49:34;102308.88;;;15.09;39.72
57616;BME280;43816;52.054;-9.494;2024-01-30T00:49:47;102300.19;;;15.04;39.83
57616;BME280;43816;52.054;-9.494;2024-01-30T00:49:58;102308.88;;;15.09;40.06
57616;BME280;43816;52.054;-9.494;2024-01-30T00:50:08;102293.25;;;15.00;40.09
57616;BME280;43816;52.054;-9.494;2024-01-30T00:50:19;102308.66;;;15.12;40.10
57616;BME280;43816;52.054;-9.494;2024-01-30T00:50:29;102298.44;;;15.03;39.91
57616;BME280;43816;52.054;-9.494;2024-01-30T00:50:39;102300.41;;;15.01;39.69
57616;BME280;43816;52.054;-9.494;2024-01-30T00:50:50;102311.38;;;15.12;40.04
57616;BME280;43816;52.054;-9.494;2024-01-30T00:51:00;102313.19;;;15.12;39.70
57616;BME280;43816;52.054;-9.494;2024-01-30T00:51:10;102299.31;;;15.04;39.95
57616;BME280;43816;52.054;-9.494;2024-01-30T00:51:20;102318.59;;;15.12;40.04
57616;BME280;43816;52.054;-9.494;2024-01-30T00:51:32;102291.53;;;14.99;39.91
57616;BME280;43816;52.054;-9.494;2024-01-30T00:51:42;102289.78;;;14.98;40.00
57616;BME280;43816;52.054;-9.494;2024-01-30T00:51:52;102309.63;;;15.11;39.96
57616;BME280;43816;52.054;-9.494;2024-01-30T00:52:03;102302.03;;;15.04;39.88
57616;BME280;43816;52.054;-9.494;2024-01-30T00:52:13;102312.31;;;15.11;39.51
57616;BME280;43816;52.054;-9.494;2024-01-30T00:52:23;102268.00;;;14.87;39.80
57616;BME280;43816;52.054;-9.494;2024-01-30T00:52:34;102312.31;;;15.11;39.98
57616;BME280;43816;52.054;-9.494;2024-01-30T00:52:44;102312.31;;;15.11;40.02
57616;BME280;43816;52.054;-9.494;2024-01-30T00:52:54;102287.06;;;14.98;40.11
57616;BME280;43816;52.054;-9.494;2024-01-30T00:53:05;102298.66;;;15.00;39.84
57616;BME280;43816;52.054;-9.494;2024-01-30T00:53:15;102316.00;;;15.10;40.04
57616;BME280;43816;52.054;-9.494;2024-01-30T00:53:26;102312.31;;;15.11;39.56
57616;BME280;43816;52.054;-9.494;2024-01-30T00:53:36;102284.56;;;14.95;39.92
57616;BME280;43816;52.054;-9.494;2024-01-30T00:53:46;102303.66;;;15.06;40.06
57616;BME280;43816;52.054;-9.494;2024-01-30T00:53:57;102316.00;;;15.10;39.95
57616;BME280;43816;52.054;-9.494;2024-01-30T00:54:07;102293.47;;;14.97;39.79
57616;BME280;43816;52.054;-9.494;2024-01-30T00:54:17;102304.53;;;15.07;40.04
57616;BME280;43816;52.054;-9.494;2024-01-30T00:54:28;102316.00;;;15.10;39.87
57616;BME280;43816;52.054;-9.494;2024-01-30T00:54:38;102316.00;;;15.10;40.03